createdAt,value
2023-02-17T00:02:15.736Z,99359.66
2023-02-17T00:04:48.499Z,99373.56
2023-02-17T00:07:20.368Z,99355.09
2023-02-17T00:09:53.158Z,99352.41
2023-02-17T00:12:25.226Z,99349.13
2023-02-17T00:14:57.591Z,99358.91
2023-02-17T00:17:30.569Z,99347.69
2023-02-17T00:20:02.469Z,99348.97
2023-02-17T00:22:35.221Z,99367.56
2023-02-17T00:25:07.888Z,99348.38
2023-02-17T00:27:39.821Z,99353.66
2023-02-17T00:30:13.058Z,99361.00
2023-02-17T00:32:45.460Z,99361.00
2023-02-17T00:35:18.327Z,99374.88
2023-02-17T00:37:50.332Z,99374.22
2023-02-17T00:40:22.695Z,99373.53
2023-02-17T00:42:54.945Z,99378.78
2023-02-17T00:45:27.725Z,99377.47
2023-02-17T00:47:59.663Z,99376.19
2023-02-17T00:50:32.418Z,99377.44
2023-02-17T00:53:04.760Z,99370.81
2023-02-17T00:55:38.689Z,99374.75
2023-02-17T00:58:11.437Z,99372.72
2023-02-17T01:00:43.365Z,99372.75
2023-02-17T01:03:16.218Z,99378.00
2023-02-17T01:05:50.200Z,99380.06
2023-02-17T01:08:23.784Z,99380.69
2023-02-17T01:10:55.926Z,99367.41
2023-02-17T01:13:29.871Z,99368.75
2023-02-17T01:16:01.804Z,99383.31
2023-02-17T01:18:34.631Z,99383.97
2023-02-17T01:21:06.882Z,99379.34
2023-02-17T01:23:39.622Z,99374.03
2023-02-17T01:26:19.583Z,99379.28
2023-02-17T01:28:54.451Z,99379.28
2023-02-17T01:31:28.740Z,99372.06
2023-02-17T01:34:03.566Z,99352.88
2023-02-17T01:36:37.136Z,99356.84
2023-02-17T01:39:10.496Z,99362.09
2023-02-17T01:41:44.301Z,99364.72
2023-02-17T01:44:23.459Z,99355.41
2023-02-17T01:46:56.788Z,99347.47
2023-02-17T01:49:37.042Z,99354.75
2023-02-17T01:52:24.136Z,99361.38
2023-02-17T01:55:05.408Z,99356.78
2023-02-17T01:57:41.649Z,99356.09
2023-02-17T02:00:15.279Z,99361.38
2023-02-17T02:02:50.936Z,99363.94
2023-02-17T02:05:25.001Z,99377.25
2023-02-17T02:07:58.316Z,99355.41
2023-02-17T02:10:30.227Z,99350.78
2023-02-17T02:13:03.938Z,99359.38
2023-02-17T02:15:59.242Z,99354.06
2023-02-17T02:18:54.464Z,99337.50
2023-02-17T02:21:50.125Z,99340.16
2023-02-17T02:24:49.177Z,99336.16
2023-02-17T02:27:33.382Z,99331.53
2023-02-17T02:34:45.515Z,99343.38
2023-02-17T02:37:26.607Z,99344.06
2023-02-17T02:40:04.035Z,99328.78
2023-02-17T02:42:39.672Z,99332.72
2023-02-17T02:45:13.666Z,99330.69
2023-02-17T02:47:53.886Z,99329.41
2023-02-17T02:50:58.061Z,99328.69
2023-02-17T02:54:05.031Z,99307.53
2023-02-17T02:57:10.046Z,99328.00
2023-02-17T03:00:12.182Z,99320.09
2023-02-17T03:03:15.824Z,99310.16
2023-02-17T03:05:59.803Z,99312.13
2023-02-17T03:08:54.174Z,99324.69
2023-02-17T03:11:33.647Z,99321.34
2023-02-17T03:14:16.048Z,99312.78
2023-02-17T03:16:50.933Z,99312.78
2023-02-17T03:19:25.782Z,99322.66
2023-02-17T03:22:09.444Z,99326.00
2023-02-17T03:24:42.635Z,99329.94
2023-02-17T03:27:15.957Z,99330.00
2023-02-17T03:29:48.781Z,99332.63
2023-02-17T03:32:22.287Z,99317.44
2023-02-17T03:34:55.070Z,99323.34
2023-02-17T03:37:27.499Z,99324.69
2023-02-17T03:40:00.272Z,99313.44
2023-02-17T03:42:32.654Z,99319.38
2023-02-17T03:45:06.105Z,99314.06
2023-02-17T03:47:38.447Z,99322.63
2023-02-17T03:50:11.209Z,99312.13
2023-02-17T03:52:44.836Z,99328.66
2023-02-17T03:55:17.639Z,99319.38
2023-02-17T03:57:50.418Z,99318.69
2023-02-17T04:03:16.513Z,99322.03
2023-02-17T04:05:49.838Z,99316.72
2023-02-17T04:08:22.807Z,99325.25
2023-02-17T04:10:57.712Z,99321.34
2023-02-17T04:13:30.956Z,99318.13
2023-02-17T04:16:04.449Z,99309.50
2023-02-17T04:18:38.648Z,99327.97
2023-02-17T04:21:10.787Z,99326.63
2023-02-17T04:23:43.534Z,99323.34
2023-02-17T04:26:15.483Z,99314.03
2023-02-17T04:28:48.616Z,99323.31
2023-02-17T04:31:21.108Z,99304.06
2023-02-17T04:33:53.872Z,99329.19
2023-02-17T04:36:25.771Z,99315.97
2023-02-17T04:38:58.483Z,99319.25
2023-02-17T04:41:30.881Z,99316.56
2023-02-17T04:44:02.758Z,99327.16
2023-02-17T04:46:35.053Z,99319.84
2023-02-17T04:49:07.008Z,99321.75
2023-02-17T04:51:39.757Z,99327.06
2023-02-17T04:54:12.833Z,99327.72
2023-02-17T04:56:44.725Z,99342.84
2023-02-17T04:59:17.462Z,99343.50
2023-02-17T05:01:50.007Z,99352.06
2023-02-17T05:04:21.969Z,99363.28
2023-02-17T05:06:54.809Z,99367.19
2023-02-17T05:09:27.528Z,99348.75
2023-02-17T05:11:59.885Z,99371.22
2023-02-17T05:14:34.541Z,99354.03
2023-02-17T05:17:07.223Z,99349.38
2023-02-17T05:19:39.217Z,99350.66
2023-02-17T05:22:33.933Z,99348.69
2023-02-17T05:25:07.819Z,99348.69
2023-02-17T05:27:40.290Z,99347.97
2023-02-17T05:30:12.990Z,99346.00
2023-02-17T05:32:45.729Z,99342.72
2023-02-17T05:35:17.774Z,99353.22
2023-02-17T05:37:51.296Z,99345.19
2023-02-17T05:40:23.242Z,99341.94
2023-02-17T05:46:10.001Z,99360.38
2023-02-17T05:48:43.117Z,99353.78
2023-02-17T05:51:17.682Z,99357.06
2023-02-17T05:53:49.982Z,99380.22
2023-02-17T05:56:23.103Z,99369.59
2023-02-17T05:58:57.833Z,99369.56
2023-02-17T06:01:29.742Z,99377.50
2023-02-17T06:04:02.458Z,99370.88
2023-02-17T06:06:34.870Z,99390.03
2023-02-17T06:09:06.858Z,99387.38
2023-02-17T06:11:39.670Z,99384.03
2023-02-17T06:14:12.051Z,99376.75
2023-02-17T06:16:44.334Z,99390.56
2023-02-17T06:19:16.665Z,99391.22
2023-02-17T06:21:48.572Z,99391.84
2023-02-17T06:24:20.837Z,99394.50
2023-02-17T06:26:53.723Z,99400.97
2023-02-17T06:29:27.793Z,99404.28
2023-02-17T06:32:02.031Z,99393.66
2023-02-17T06:34:33.949Z,99412.09
2023-02-17T06:37:07.051Z,99426.63
2023-02-17T06:39:39.864Z,99406.69
2023-02-17T06:42:12.026Z,99414.47
2023-02-17T06:44:44.800Z,99414.47
2023-02-17T06:47:16.790Z,99419.13
2023-02-17T06:52:43.128Z,99402.59
2023-02-17T06:55:16.325Z,99402.59
2023-02-17T06:57:48.377Z,99412.47
2023-02-17T07:00:23.164Z,99419.09
2023-02-17T07:02:55.624Z,99426.34
2023-02-17T07:05:28.018Z,99422.41
2023-02-17T07:08:01.057Z,99430.41
2023-02-17T07:10:37.969Z,99425.19
2023-02-17T07:13:10.961Z,99433.16
2023-02-17T07:15:43.514Z,99439.69
2023-02-17T07:18:17.346Z,99432.75
2023-02-17T07:20:49.988Z,99442.50
2023-02-17T07:23:22.746Z,99459.66
2023-02-17T07:25:56.992Z,99467.56
2023-02-17T07:28:29.276Z,99475.34
2023-02-17T07:31:28.591Z,99460.13
2023-02-17T07:34:03.063Z,99460.13
2023-02-17T07:36:35.870Z,99470.53
2023-02-17T07:39:08.121Z,99472.44
2023-02-17T07:41:41.590Z,99466.53
2023-02-17T07:44:16.628Z,99456.53
2023-02-17T07:46:49.827Z,99461.16
2023-02-17T07:49:22.707Z,99470.38
2023-02-17T07:51:54.619Z,99467.09
2023-02-17T07:54:28.769Z,99466.44
2023-02-17T07:57:00.825Z,99470.38
2023-02-17T07:59:34.232Z,99454.50
2023-02-17T08:02:08.874Z,99461.06
2023-02-17T08:04:40.864Z,99462.50
2023-02-17T08:07:14.362Z,99459.25
2023-02-17T08:10:05.886Z,99465.19
2023-02-17T08:12:57.383Z,99462.44
2023-02-17T08:15:34.628Z,99467.09
2023-02-17T08:18:06.610Z,99477.00
2023-02-17T08:20:40.334Z,99478.28
2023-02-17T08:23:13.094Z,99481.50
2023-02-17T08:25:44.999Z,99492.69
2023-02-17T08:31:34.806Z,99506.09
2023-02-17T08:34:10.974Z,99502.81
2023-02-17T08:36:43.401Z,99498.16
2023-02-17T08:39:18.969Z,99502.09
2023-02-17T08:41:50.890Z,99505.53
2023-02-17T08:44:27.683Z,99504.16
2023-02-17T08:47:00.506Z,99506.75
2023-02-17T08:49:33.700Z,99510.75
2023-02-17T08:52:08.218Z,99522.47
2023-02-17T08:57:34.034Z,99561.72
2023-02-17T09:00:24.714Z,99530.94
2023-02-17T09:02:56.688Z,99547.09
2023-02-17T09:08:23.357Z,99545.06
2023-02-17T09:10:56.792Z,99556.06
2023-02-17T09:13:50.285Z,99563.63
2023-02-17T09:16:25.885Z,99557.09
2023-02-17T09:18:58.014Z,99565.78
2023-02-17T09:24:25.780Z,99543.59
2023-02-17T09:26:58.080Z,99551.91
2023-02-17T09:29:31.472Z,99555.78
2023-02-17T09:32:10.384Z,99547.88
2023-02-17T09:34:49.690Z,99542.47
2023-02-17T09:37:24.021Z,99541.00
2023-02-17T09:39:56.388Z,99547.00
2023-02-17T09:42:43.095Z,99539.09
2023-02-17T09:45:31.620Z,99558.34
2023-02-17T09:48:12.449Z,99545.81
2023-02-17T09:51:01.918Z,99553.28
2023-02-17T09:54:00.886Z,99546.81
2023-02-17T09:56:42.439Z,99544.75
2023-02-17T09:59:19.212Z,99558.56
2023-02-17T10:01:59.943Z,99556.19
2023-02-17T10:05:00.611Z,99546.06
2023-02-17T10:08:08.195Z,99548.94
2023-02-17T10:10:54.084Z,99541.59
2023-02-17T10:13:36.125Z,99533.28
2023-02-17T10:16:18.284Z,99557.72
2023-02-17T10:19:02.649Z,99532.91
2023-02-17T10:21:44.739Z,99548.38
2023-02-17T10:24:18.007Z,99533.47
2023-02-17T10:27:44.519Z,99563.06
2023-02-17T10:30:44.689Z,99559.53
2023-02-17T10:37:06.720Z,99575.66
2023-02-17T10:40:02.285Z,99572.34
2023-02-17T10:42:39.773Z,99579.53
2023-02-17T10:45:27.507Z,99577.03
2023-02-17T10:48:17.298Z,99564.94
2023-02-17T10:50:54.473Z,99559.88
2023-02-17T10:53:37.801Z,99557.28
2023-02-17T10:56:22.976Z,99564.16
2023-02-17T10:59:11.833Z,99547.69
2023-02-17T11:01:45.745Z,99555.44
2023-02-17T11:04:21.192Z,99553.06
2023-02-17T11:07:15.076Z,99553.22
2023-02-17T11:09:52.870Z,99539.38
2023-02-17T11:12:41.733Z,99539.81
2023-02-17T11:15:24.248Z,99551.13
2023-02-17T11:18:01.428Z,99533.97
2023-02-17T11:20:36.452Z,99531.22
2023-02-17T11:23:25.322Z,99544.59
2023-02-17T11:26:16.838Z,99543.16
2023-02-17T11:28:50.984Z,99531.28
2023-02-17T11:31:29.687Z,99534.66
2023-02-17T11:34:21.851Z,99522.13
2023-02-17T11:37:12.283Z,99531.28
2023-02-17T11:39:54.214Z,99518.78
2023-02-17T11:42:33.969Z,99515.13
2023-02-17T11:45:30.893Z,99521.72
2023-02-17T11:48:43.433Z,99520.41
2023-02-17T11:51:43.743Z,99524.53
2023-02-17T11:54:51.104Z,99540.75
2023-02-17T11:57:42.499Z,99520.88
2023-02-17T12:00:39.903Z,99507.69
2023-02-17T12:03:48.710Z,99507.78
2023-02-17T12:06:55.900Z,99512.56
2023-02-17T12:09:58.065Z,99507.88
2023-02-17T12:12:55.011Z,99514.19
2023-02-17T12:15:59.687Z,99506.75
2023-02-17T12:19:08.728Z,99519.94
2023-02-17T12:22:16.006Z,99513.25
2023-02-17T12:25:31.089Z,99508.78
2023-02-17T12:28:14.289Z,99523.25
2023-02-17T12:31:15.972Z,99511.53
2023-02-17T12:34:47.219Z,99516.25
2023-02-17T12:37:25.436Z,99516.25
2023-02-17T12:40:22.067Z,99510.25
2023-02-17T12:43:01.361Z,99512.72
2023-02-17T12:45:51.326Z,99512.69
2023-02-17T12:49:07.417Z,99510.75
2023-02-17T12:51:45.806Z,99506.31
2023-02-17T12:54:30.316Z,99502.34
2023-02-17T12:57:11.250Z,99499.09
2023-02-17T12:59:47.011Z,99486.03
2023-02-17T13:02:26.823Z,99491.22
2023-02-17T13:05:02.167Z,99491.41
2023-02-17T13:08:00.597Z,99482.06
2023-02-17T13:10:37.096Z,99486.03
2023-02-17T13:13:26.915Z,99484.09
2023-02-17T13:16:14.275Z,99477.63
2023-02-17T13:18:50.603Z,99477.75
2023-02-17T13:21:24.801Z,99474.34
2023-02-17T13:24:35.524Z,99473.66
2023-02-17T13:27:31.217Z,99461.00
2023-02-17T13:30:39.428Z,99469.75
2023-02-17T13:33:20.416Z,99474.94
2023-02-17T13:35:53.340Z,99465.56
2023-02-17T13:38:31.372Z,99458.28
2023-02-17T13:41:07.505Z,99461.69
2023-02-17T13:43:43.001Z,99448.41
2023-02-17T13:46:26.440Z,99463.72
2023-02-17T13:49:05.224Z,99461.06
2023-02-17T13:51:37.919Z,99463.06
2023-02-17T13:54:12.319Z,99459.72
2023-02-17T13:56:52.454Z,99459.03
2023-02-17T13:59:27.154Z,99459.78
2023-02-17T14:02:00.426Z,99459.78
2023-02-17T14:04:32.656Z,99459.78
2023-02-17T14:07:05.778Z,99459.81
2023-02-17T14:09:38.166Z,99462.41
2023-02-17T14:12:24.909Z,99451.78
2023-02-17T14:14:56.943Z,99454.50
2023-02-17T14:17:32.982Z,99458.56
2023-02-17T14:20:05.868Z,99462.50
2023-02-17T14:22:38.819Z,99453.91
2023-02-17T14:25:27.348Z,99461.91
2023-02-17T14:27:59.796Z,99459.94
2023-02-17T14:30:39.381Z,99465.84
2023-02-17T14:33:17.397Z,99463.88
2023-02-17T14:35:57.219Z,99480.47
2023-02-17T14:38:37.710Z,99472.50
2023-02-17T14:41:10.294Z,99480.53
2023-02-17T14:43:42.641Z,99472.47
2023-02-17T14:46:15.239Z,99475.09
2023-02-17T14:48:51.338Z,99479.09
2023-02-17T14:51:30.854Z,99481.75
2023-02-17T14:54:13.850Z,99479.19
2023-02-17T14:57:13.512Z,99469.16
2023-02-17T14:59:46.094Z,99467.16
2023-02-17T15:02:21.093Z,99464.53
2023-02-17T15:04:53.470Z,99474.47
2023-02-17T15:07:25.433Z,99465.84
2023-02-17T15:09:57.776Z,99455.88
2023-02-17T15:12:29.778Z,99465.16
2023-02-17T15:15:02.524Z,99463.31
2023-02-17T15:17:34.408Z,99459.28
2023-02-17T15:20:09.834Z,99452.13
2023-02-17T15:22:42.629Z,99452.84
2023-02-17T15:25:22.816Z,99448.81
2023-02-17T15:27:55.459Z,99445.44
2023-02-17T15:30:28.603Z,99446.19
2023-02-17T15:33:02.751Z,99452.16
2023-02-17T15:35:35.094Z,99440.19
2023-02-17T15:38:11.625Z,99436.28
2023-02-17T15:40:44.037Z,99429.59
2023-02-17T15:43:21.106Z,99438.75
2023-02-17T15:45:53.914Z,99439.34
2023-02-17T15:48:31.949Z,99437.41
2023-02-17T15:51:04.790Z,99429.44
2023-02-17T15:53:36.741Z,99430.00
2023-02-17T15:56:27.605Z,99441.25
2023-02-17T15:59:14.796Z,99431.97
2023-02-17T16:01:47.359Z,99428.03
2023-02-17T16:04:19.734Z,99425.31
2023-02-17T16:06:52.422Z,99438.63
2023-02-17T16:09:24.312Z,99440.56
2023-02-17T16:11:58.552Z,99453.75
2023-02-17T16:14:36.868Z,99441.72
2023-02-17T16:17:16.993Z,99463.56
2023-02-17T16:19:49.355Z,99452.28
2023-02-17T16:22:22.081Z,99460.84
2023-02-17T16:24:54.018Z,99463.47
2023-02-17T16:27:26.433Z,99462.78
2023-02-17T16:29:58.885Z,99468.03
2023-02-17T16:32:33.235Z,99452.81
2023-02-17T16:35:07.144Z,99462.66
2023-02-17T16:37:39.910Z,99452.00
2023-02-17T16:40:17.860Z,99443.38
2023-02-17T16:42:50.519Z,99436.75
2023-02-17T16:45:25.980Z,99467.13
2023-02-17T16:48:01.423Z,99451.91
2023-02-17T16:50:35.331Z,99437.31
2023-02-17T16:53:10.967Z,99434.63
2023-02-17T16:55:43.206Z,99441.25
2023-02-17T16:58:23.019Z,99436.00
2023-02-17T17:00:56.313Z,99439.28
2023-02-17T17:03:28.765Z,99452.53
2023-02-17T17:06:02.219Z,99454.47
2023-02-17T17:08:35.045Z,99445.31
2023-02-17T17:11:07.044Z,99457.88
2023-02-17T17:13:39.369Z,99456.59
2023-02-17T17:16:33.333Z,99462.59
2023-02-17T17:19:05.828Z,99473.91
2023-02-17T17:21:37.745Z,99470.53
2023-02-17T17:24:10.457Z,99474.53
2023-02-17T17:26:46.188Z,99477.84
2023-02-17T17:29:19.704Z,99472.53
2023-02-17T17:31:51.784Z,99478.38
2023-02-17T17:34:24.678Z,99487.56
2023-02-17T17:36:57.297Z,99493.53
2023-02-17T17:39:29.672Z,99498.72
2023-02-17T17:42:01.621Z,99509.94
2023-02-17T17:44:34.014Z,99505.84
2023-02-17T17:47:06.110Z,99508.72
2023-02-17T17:49:38.444Z,99520.44
2023-02-17T17:52:10.382Z,99501.22
2023-02-17T17:54:43.534Z,99499.22
2023-02-17T17:57:15.458Z,99509.03
2023-02-17T17:59:47.940Z,99505.81
2023-02-17T18:02:19.849Z,99495.88
2023-02-17T18:04:52.528Z,99507.13
2023-02-17T18:07:26.109Z,99509.75
2023-02-17T18:09:59.000Z,99507.03
2023-02-17T18:12:33.548Z,99526.84
2023-02-17T18:15:07.815Z,99514.28
2023-02-17T18:17:42.176Z,99511.56
2023-02-17T18:20:15.196Z,99522.09
2023-02-17T18:22:48.580Z,99530.66
2023-02-17T18:25:21.411Z,99524.72
2023-02-17T18:27:53.781Z,99535.94
2023-02-17T18:30:27.663Z,99528.63
2023-02-17T18:33:00.122Z,99532.53
2023-02-17T18:35:38.726Z,99523.94
2023-02-17T18:38:12.175Z,99522.59
2023-02-17T18:40:44.762Z,99519.31
2023-02-17T18:43:16.831Z,99525.31
2023-02-17T18:45:50.272Z,99529.28
2023-02-17T18:48:22.862Z,99542.44
2023-02-17T18:50:55.233Z,99537.81
2023-02-17T18:53:27.827Z,99543.69
2023-02-17T18:56:00.773Z,99542.28
2023-02-17T18:58:57.894Z,99538.97
2023-02-17T19:01:34.703Z,99553.53
2023-02-17T19:04:12.206Z,99549.53
2023-02-17T19:06:44.570Z,99548.25
2023-02-17T19:09:16.985Z,99546.25
2023-02-17T19:11:48.843Z,99542.91
2023-02-17T19:14:22.173Z,99562.06
2023-02-17T19:16:54.062Z,99560.03
2023-02-17T19:19:29.642Z,99559.34
2023-02-17T19:22:03.881Z,99569.19
2023-02-17T19:24:38.381Z,99565.25
2023-02-17T19:27:12.396Z,99572.53
2023-02-17T19:29:44.334Z,99556.69
2023-02-17T19:32:17.152Z,99562.56
2023-02-17T19:34:50.313Z,99579.19
2023-02-17T19:37:23.364Z,99576.44
2023-02-17T19:39:56.004Z,99582.34
2023-02-17T19:42:28.560Z,99583.03
2023-02-17T19:45:00.885Z,99583.22
2023-02-17T19:47:33.245Z,99584.41
2023-02-17T19:50:08.325Z,99592.34
2023-02-17T19:52:41.055Z,99598.31
2023-02-17T19:55:14.205Z,99598.31
2023-02-17T19:57:50.035Z,99600.31
2023-02-17T20:00:22.029Z,99593.16
2023-02-17T20:02:55.417Z,99613.09
2023-02-17T20:05:27.804Z,99598.69
2023-02-17T20:08:01.050Z,99606.59
2023-02-17T20:10:33.973Z,99607.38
2023-02-17T20:13:06.644Z,99610.69
2023-02-17T20:15:39.061Z,99606.78
2023-02-17T20:18:12.214Z,99585.66
2023-02-17T20:20:53.789Z,99601.53
2023-02-17T20:23:27.685Z,99604.84
2023-02-17T20:26:05.862Z,99609.38
2023-02-17T20:28:38.495Z,99616.63
2023-02-17T20:31:11.493Z,99620.53
2023-02-17T20:33:45.091Z,99611.94
2023-02-17T20:36:17.563Z,99612.56
2023-02-17T20:38:51.270Z,99611.13
2023-02-17T20:41:24.508Z,99611.81
2023-02-17T20:43:59.130Z,99614.38
2023-02-17T20:46:31.314Z,99615.13
2023-02-17T20:49:04.074Z,99621.69
2023-02-17T20:51:37.089Z,99626.34
2023-02-17T20:54:10.043Z,99615.78
2023-02-17T20:56:46.189Z,99626.34
2023-02-17T20:59:18.614Z,99617.81
2023-02-17T21:01:50.747Z,99618.53
2023-02-17T21:04:23.521Z,99615.88
2023-02-17T21:06:55.474Z,99613.91
2023-02-17T21:09:27.826Z,99621.22
2023-02-17T21:12:00.155Z,99627.16
2023-02-17T21:14:32.210Z,99634.47
2023-02-17T21:17:04.681Z,99629.75
2023-02-17T21:19:38.274Z,99625.84
2023-02-17T21:22:10.486Z,99619.19
2023-02-17T21:24:43.244Z,99629.81
2023-02-17T21:27:15.111Z,99627.81
2023-02-17T21:29:47.832Z,99628.47
2023-02-17T21:32:20.918Z,99633.03
2023-02-17T21:34:53.291Z,99632.38
2023-02-17T21:37:25.642Z,99622.41
2023-02-17T21:39:58.350Z,99622.44
2023-02-17T21:42:50.102Z,99633.03
2023-02-17T21:45:22.750Z,99623.09
2023-02-17T21:47:56.107Z,99635.00
2023-02-17T21:50:28.386Z,99640.97
2023-02-17T21:53:01.250Z,99640.91
2023-02-17T21:55:33.223Z,99626.13
2023-02-17T21:58:05.826Z,99630.19
2023-02-17T22:00:39.008Z,99632.94
2023-02-17T22:03:11.379Z,99630.94
2023-02-17T22:05:45.084Z,99635.53
2023-02-17T22:08:17.131Z,99616.13
2023-02-17T22:10:50.078Z,99608.97
2023-02-17T22:13:23.714Z,99622.78
2023-02-17T22:15:58.712Z,99635.47
2023-02-17T22:18:31.919Z,99638.09
2023-02-17T22:21:10.291Z,99628.16
2023-02-17T22:23:43.201Z,99629.28
2023-02-17T22:26:20.287Z,99620.75
2023-02-17T22:28:54.738Z,99622.75
2023-02-17T22:31:29.541Z,99610.13
2023-02-17T22:34:06.936Z,99608.22
2023-02-17T22:36:38.902Z,99602.22
2023-02-17T22:42:04.892Z,99624.13
2023-02-17T22:44:55.580Z,99625.31
2023-02-17T22:47:28.288Z,99612.19
2023-02-17T22:50:00.199Z,99620.81
2023-02-17T22:52:32.965Z,99621.50
2023-02-17T22:55:05.186Z,99632.81
2023-02-17T22:57:38.418Z,99640.72
2023-02-17T23:00:11.261Z,99636.75
2023-02-17T23:03:05.960Z,99641.50
2023-02-17T23:05:37.897Z,99621.50
2023-02-17T23:08:14.074Z,99624.88
2023-02-17T23:10:46.846Z,99622.22
2023-02-17T23:13:19.679Z,99631.59
2023-02-17T23:15:51.875Z,99621.00
2023-02-17T23:18:24.338Z,99620.31
2023-02-17T23:20:56.234Z,99617.72
2023-02-17T23:23:28.962Z,99603.00
2023-02-17T23:26:01.306Z,99622.31
2023-02-17T23:28:34.817Z,99617.66
2023-02-17T23:31:10.772Z,99617.72
2023-02-17T23:33:43.546Z,99609.13
2023-02-17T23:36:15.442Z,99617.63
2023-02-17T23:38:48.155Z,99621.72
2023-02-17T23:41:20.045Z,99611.00
2023-02-17T23:43:52.805Z,99625.66
2023-02-17T23:46:24.755Z,99613.63
2023-02-17T23:48:57.528Z,99613.00
2023-02-17T23:51:29.472Z,99624.22
2023-02-17T23:54:02.355Z,99596.94
2023-02-17T23:56:36.395Z,99613.63
2023-02-17T23:59:08.773Z,99618.38
